createdAt,value
2023-07-21T00:00:41.038Z,51.323372
2023-07-21T00:01:41.102Z,51.323391
2023-07-21T00:02:41.077Z,51.323429
2023-07-21T00:03:41.022Z,51.323402
2023-07-21T00:04:40.945Z,51.323391
2023-07-21T00:05:40.924Z,51.323399
2023-07-21T00:06:40.906Z,51.323376
2023-07-21T00:07:40.916Z,51.323360
2023-07-21T00:08:40.890Z,51.323448
2023-07-21T00:09:40.839Z,51.323433
2023-07-21T00:10:40.816Z,51.323452
2023-07-21T00:11:40.837Z,51.323429
2023-07-21T00:12:40.792Z,51.323448
2023-07-21T00:13:40.750Z,51.323441
2023-07-21T00:14:40.728Z,51.323383
2023-07-21T00:15:40.721Z,51.323421
2023-07-21T00:16:40.701Z,51.323467
2023-07-21T00:17:40.786Z,51.323448
2023-07-21T00:18:40.634Z,51.323387
2023-07-21T00:19:40.611Z,51.323448
2023-07-21T00:20:40.627Z,51.323441
2023-07-21T00:21:40.596Z,51.323452
2023-07-21T00:22:40.560Z,51.323421
2023-07-21T00:23:40.524Z,51.323429
2023-07-21T00:24:40.519Z,51.323460
2023-07-21T00:25:40.534Z,51.323421
2023-07-21T00:26:40.448Z,51.323429
2023-07-21T00:27:40.425Z,51.323448
2023-07-21T00:28:40.399Z,51.323448
2023-07-21T00:29:40.379Z,51.323414
2023-07-21T00:30:40.391Z,51.323402
2023-07-21T00:31:40.547Z,51.323410
2023-07-21T00:32:40.357Z,51.323395
2023-07-21T00:33:40.291Z,51.323437
2023-07-21T00:34:40.297Z,51.323402
2023-07-21T00:35:40.273Z,51.323429
2023-07-21T00:36:40.224Z,51.323414
2023-07-21T00:37:40.225Z,51.323421
2023-07-21T00:38:40.182Z,51.323429
2023-07-21T00:39:40.187Z,51.323433
2023-07-21T00:40:40.137Z,51.323437
2023-07-21T00:41:40.117Z,51.323425
2023-07-21T00:42:40.090Z,51.323418
2023-07-21T00:43:40.068Z,51.323406
2023-07-21T00:44:40.077Z,51.323395
2023-07-21T00:45:40.088Z,51.323410
2023-07-21T00:46:40.036Z,51.323414
2023-07-21T00:47:39.997Z,51.323414
2023-07-21T00:48:39.981Z,51.323418
2023-07-21T00:49:39.963Z,51.323441
2023-07-21T00:50:39.907Z,51.323406
2023-07-21T00:51:39.883Z,51.323429
2023-07-21T00:52:39.866Z,51.323410
2023-07-21T00:53:39.876Z,51.323421
2023-07-21T00:54:39.821Z,51.323429
2023-07-21T00:55:39.812Z,51.323425
2023-07-21T00:56:39.776Z,51.323383
2023-07-21T00:57:39.756Z,51.323395
2023-07-21T00:58:39.769Z,51.323357
2023-07-21T00:59:39.740Z,51.323383
2023-07-21T01:00:39.716Z,51.323402
2023-07-21T01:01:39.668Z,51.323418
2023-07-21T01:02:39.818Z,51.323429
2023-07-21T01:03:39.727Z,51.323418
2023-07-21T01:04:39.589Z,51.323395
2023-07-21T01:05:40.575Z,51.323380
2023-07-21T01:06:39.555Z,51.323376
2023-07-21T01:07:39.628Z,51.323372
2023-07-21T01:08:39.511Z,51.323391
2023-07-21T01:09:39.482Z,51.323414
2023-07-21T01:10:39.476Z,51.323406
2023-07-21T01:11:39.448Z,51.323425
2023-07-21T01:12:39.442Z,51.323402
2023-07-21T01:13:39.397Z,51.323425
2023-07-21T01:14:39.368Z,51.323414
2023-07-21T01:15:39.350Z,51.323425
2023-07-21T01:16:39.367Z,51.323418
2023-07-21T01:17:40.064Z,51.323410
2023-07-21T01:18:40.287Z,51.323414
2023-07-21T01:19:39.257Z,51.323418
2023-07-21T01:20:39.243Z,51.323380
2023-07-21T01:21:39.247Z,51.323387
2023-07-21T01:22:39.194Z,51.323402
2023-07-21T01:23:39.180Z,51.323383
2023-07-21T01:24:39.250Z,51.323410
2023-07-21T01:25:39.134Z,51.323406
2023-07-21T01:26:39.137Z,51.323410
2023-07-21T01:27:39.076Z,51.323414
2023-07-21T01:28:39.074Z,51.323429
2023-07-21T01:29:39.033Z,51.323406
2023-07-21T01:30:39.071Z,51.323391
2023-07-21T01:31:39.021Z,51.323414
2023-07-21T01:32:39.000Z,51.323421
2023-07-21T01:33:38.946Z,51.323414
2023-07-21T01:34:38.928Z,51.323410
2023-07-21T01:35:38.930Z,51.323437
2023-07-21T01:36:38.873Z,51.323406
2023-07-21T01:37:38.851Z,51.323406
2023-07-21T01:38:38.830Z,51.323414
2023-07-21T01:39:38.854Z,51.323402
2023-07-21T01:40:38.853Z,51.323414
2023-07-21T01:41:38.770Z,51.323399
2023-07-21T01:42:38.739Z,51.323418
2023-07-21T01:43:38.739Z,51.323433
2023-07-21T01:44:38.757Z,51.323441
2023-07-21T01:45:38.672Z,51.323421
2023-07-21T01:46:38.694Z,51.323383
2023-07-21T01:47:38.642Z,51.323410
2023-07-21T01:48:38.602Z,51.323418
2023-07-21T01:49:38.618Z,51.323429
2023-07-21T01:50:38.556Z,51.323433
2023-07-21T01:51:38.541Z,51.323425
2023-07-21T01:52:38.530Z,51.323406
2023-07-21T01:53:38.516Z,51.323452
2023-07-21T01:54:38.504Z,51.323425
2023-07-21T01:55:38.450Z,51.323391
2023-07-21T01:56:38.430Z,51.323452
2023-07-21T01:57:38.402Z,51.323406
2023-07-21T01:58:38.405Z,51.323387
2023-07-21T01:59:38.360Z,51.323414
2023-07-21T02:00:50.770Z,51.323429
2023-07-21T02:01:40.339Z,51.323437
2023-07-21T02:02:38.349Z,51.323463
2023-07-21T02:03:38.409Z,51.323399
2023-07-21T02:04:38.260Z,51.323448
2023-07-21T02:05:38.232Z,51.323532
2023-07-21T02:06:38.212Z,51.323505
2023-07-21T02:07:38.215Z,51.323505
2023-07-21T02:08:38.193Z,51.323460
2023-07-21T02:09:38.142Z,51.323471
2023-07-21T02:10:38.115Z,51.323467
2023-07-21T02:11:38.098Z,51.323467
2023-07-21T02:12:38.109Z,51.323452
2023-07-21T02:13:38.062Z,51.323444
2023-07-21T02:14:38.033Z,51.323437
2023-07-21T02:15:38.017Z,51.323421
2023-07-21T02:16:38.004Z,51.323421
2023-07-21T02:17:38.101Z,51.323402
2023-07-21T02:18:37.988Z,51.323421
2023-07-21T02:19:37.927Z,51.323421
2023-07-21T02:20:37.911Z,51.323437
2023-07-21T02:21:37.924Z,51.323460
2023-07-21T02:22:37.886Z,51.323460
2023-07-21T02:23:37.856Z,51.323441
2023-07-21T02:24:37.836Z,51.323414
2023-07-21T02:25:37.787Z,51.323399
2023-07-21T02:26:37.799Z,51.323425
2023-07-21T02:27:37.742Z,51.323441
2023-07-21T02:28:37.741Z,51.323475
2023-07-21T02:29:37.695Z,51.323441
2023-07-21T02:30:37.694Z,51.323429
2023-07-21T02:31:37.743Z,51.323433
2023-07-21T02:32:37.652Z,51.323429
2023-07-21T02:33:37.612Z,51.323410
2023-07-21T02:34:37.593Z,51.323429
2023-07-21T02:35:37.606Z,51.323429
2023-07-21T02:36:37.610Z,51.323448
2023-07-21T02:37:37.539Z,51.323425
2023-07-21T02:38:37.516Z,51.323425
2023-07-21T02:39:37.486Z,51.323433
2023-07-21T02:40:37.487Z,51.323418
2023-07-21T02:41:37.433Z,51.323425
2023-07-21T02:42:37.417Z,51.323460
2023-07-21T02:43:37.387Z,51.323452
2023-07-21T02:44:37.365Z,51.323463
2023-07-21T02:45:37.370Z,51.323421
2023-07-21T02:46:37.389Z,51.323410
2023-07-21T02:47:37.314Z,51.323452
2023-07-21T02:48:37.277Z,51.323483
2023-07-21T02:49:37.286Z,51.323463
2023-07-21T02:50:37.278Z,51.323444
2023-07-21T02:51:37.210Z,51.323486
2023-07-21T02:52:37.206Z,51.323441
2023-07-21T02:53:37.184Z,51.323441
2023-07-21T02:54:37.184Z,51.323421
2023-07-21T02:55:37.120Z,51.323452
2023-07-21T02:56:37.098Z,51.323532
2023-07-21T02:57:37.080Z,51.323494
2023-07-21T02:58:37.061Z,51.323448
2023-07-21T02:59:37.062Z,51.323467
2023-07-21T03:00:37.013Z,51.323437
2023-07-21T03:01:37.008Z,51.323410
2023-07-21T03:02:37.153Z,51.323444
2023-07-21T03:03:37.081Z,51.323460
2023-07-21T03:04:36.957Z,51.323467
2023-07-21T03:05:36.908Z,51.323456
2023-07-21T03:06:36.893Z,51.323471
2023-07-21T03:07:36.864Z,51.323471
2023-07-21T03:08:36.873Z,51.323406
2023-07-21T03:09:36.828Z,51.323395
2023-07-21T03:10:36.803Z,51.323395
2023-07-21T03:11:36.798Z,51.323414
2023-07-21T03:12:36.792Z,51.323421
2023-07-21T03:13:36.766Z,51.323433
2023-07-21T03:14:36.716Z,51.323414
2023-07-21T03:15:36.723Z,51.323391
2023-07-21T03:16:36.688Z,51.323387
2023-07-21T03:17:36.720Z,51.323421
2023-07-21T03:18:36.627Z,51.323425
2023-07-21T03:19:36.604Z,51.323410
2023-07-21T03:20:36.600Z,51.323368
2023-07-21T03:21:36.671Z,51.323383
2023-07-21T03:22:36.575Z,51.323380
2023-07-21T03:23:36.527Z,51.323399
2023-07-21T03:24:36.518Z,51.323391
2023-07-21T03:25:36.475Z,51.323380
2023-07-21T03:26:36.520Z,51.323349
2023-07-21T03:27:36.470Z,51.323402
2023-07-21T03:28:36.415Z,51.323475
2023-07-21T03:29:36.395Z,51.323475
2023-07-21T03:30:36.370Z,51.323433
2023-07-21T03:31:36.468Z,51.323441
2023-07-21T03:32:36.368Z,51.323421
2023-07-21T03:33:36.315Z,51.323414
2023-07-21T03:34:36.289Z,51.323391
2023-07-21T03:35:36.269Z,51.323357
2023-07-21T03:36:36.268Z,51.323368
2023-07-21T03:37:36.218Z,51.323414
2023-07-21T03:38:36.197Z,51.323414
2023-07-21T03:39:36.176Z,51.323410
2023-07-21T03:40:36.189Z,51.323410
2023-07-21T03:41:36.172Z,51.323410
2023-07-21T03:42:36.129Z,51.323402
2023-07-21T03:43:36.093Z,51.323391
2023-07-21T03:44:36.073Z,51.323387
2023-07-21T03:45:36.104Z,51.323383
2023-07-21T03:46:36.082Z,51.323406
2023-07-21T03:47:36.031Z,51.323418
2023-07-21T03:48:36.018Z,51.323452
2023-07-21T03:49:35.972Z,51.323433
2023-07-21T03:50:35.981Z,51.323387
2023-07-21T03:51:35.923Z,51.323410
2023-07-21T03:52:35.904Z,51.323399
2023-07-21T03:53:37.487Z,51.323418
2023-07-21T03:54:36.900Z,51.323421
2023-07-21T03:55:35.870Z,51.323399
2023-07-21T03:56:35.818Z,51.323418
2023-07-21T03:57:35.796Z,51.323441
2023-07-21T03:58:35.778Z,51.323460
2023-07-21T03:59:35.805Z,51.323479
2023-07-21T04:00:35.732Z,51.323437
2023-07-21T04:01:35.774Z,51.323441
2023-07-21T04:02:35.866Z,51.323399
2023-07-21T04:03:35.756Z,51.323395
2023-07-21T04:04:35.837Z,51.323406
2023-07-21T04:05:35.640Z,51.323414
2023-07-21T04:06:35.610Z,51.323387
2023-07-21T04:07:35.589Z,51.323353
2023-07-21T04:08:35.605Z,51.323399
2023-07-21T04:09:35.577Z,51.323406
2023-07-21T04:10:35.525Z,51.323395
2023-07-21T04:11:35.507Z,51.323399
2023-07-21T04:12:35.503Z,51.323391
2023-07-21T04:13:35.511Z,51.323402
2023-07-21T04:14:35.456Z,51.323410
2023-07-21T04:15:35.431Z,51.323402
2023-07-21T04:16:35.479Z,51.323410
2023-07-21T04:17:35.401Z,51.323395
2023-07-21T04:18:35.392Z,51.323406
2023-07-21T04:19:35.344Z,51.323395
2023-07-21T04:20:35.320Z,51.323372
2023-07-21T04:21:35.307Z,51.323360
2023-07-21T04:22:35.320Z,51.323395
2023-07-21T04:23:35.291Z,51.323383
2023-07-21T04:24:35.405Z,51.323406
2023-07-21T04:25:35.222Z,51.323364
2023-07-21T04:26:35.193Z,51.323368
2023-07-21T04:27:35.206Z,51.323387
2023-07-21T04:28:35.160Z,51.323395
2023-07-21T04:29:37.192Z,51.323406
2023-07-21T04:30:36.118Z,51.323387
2023-07-21T04:31:35.209Z,51.323395
2023-07-21T04:32:35.134Z,51.323399
2023-07-21T04:33:35.050Z,51.323376
2023-07-21T04:34:35.028Z,51.323368
2023-07-21T04:35:35.018Z,51.323357
2023-07-21T04:36:35.020Z,51.323425
2023-07-21T04:37:34.963Z,51.323383
2023-07-21T04:38:34.956Z,51.323387
2023-07-21T04:39:34.925Z,51.323395
2023-07-21T04:40:34.897Z,51.323395
2023-07-21T04:41:34.910Z,51.323399
2023-07-21T04:42:34.863Z,51.323399
2023-07-21T04:43:34.853Z,51.323406
2023-07-21T04:44:34.818Z,51.323406
2023-07-21T04:45:34.825Z,51.323399
2023-07-21T04:46:34.835Z,51.323410
2023-07-21T04:47:34.806Z,51.323425
2023-07-21T04:48:34.733Z,51.323410
2023-07-21T04:49:34.715Z,51.323410
2023-07-21T04:50:34.715Z,51.323429
2023-07-21T04:51:34.676Z,51.323433
2023-07-21T04:52:34.646Z,51.323441
2023-07-21T04:53:34.619Z,51.323418
2023-07-21T04:54:34.600Z,51.323402
2023-07-21T04:55:34.613Z,51.323402
2023-07-21T04:56:34.556Z,51.323399
2023-07-21T04:57:34.536Z,51.323429
2023-07-21T04:58:34.515Z,51.323433
2023-07-21T04:59:34.545Z,51.323441
2023-07-21T05:00:34.507Z,51.323414
2023-07-21T05:01:34.464Z,51.323399
2023-07-21T05:02:34.496Z,51.323391
2023-07-21T05:03:34.506Z,51.323399
2023-07-21T05:04:34.414Z,51.323387
2023-07-21T05:05:34.364Z,51.323395
2023-07-21T05:06:34.347Z,51.323399
2023-07-21T05:07:34.324Z,51.323433
2023-07-21T05:08:34.337Z,51.323391
2023-07-21T05:09:34.314Z,51.323391
2023-07-21T05:10:34.266Z,51.323395
2023-07-21T05:11:34.247Z,51.323414
2023-07-21T05:12:34.228Z,51.323421
2023-07-21T05:13:34.235Z,51.323421
2023-07-21T05:14:34.209Z,51.323414
2023-07-21T05:15:34.157Z,51.323414
2023-07-21T05:16:34.141Z,51.323410
2023-07-21T05:17:34.134Z,51.323418
2023-07-21T05:18:34.122Z,51.323406
2023-07-21T05:19:34.072Z,51.323414
2023-07-21T05:20:34.054Z,51.323399
2023-07-21T05:21:34.060Z,51.323410
2023-07-21T05:22:34.036Z,51.323421
2023-07-21T05:23:34.022Z,51.323383
2023-07-21T05:24:34.025Z,51.323368
2023-07-21T05:25:33.953Z,51.323399
2023-07-21T05:26:33.920Z,51.323391
2023-07-21T05:27:33.951Z,51.323406
2023-07-21T05:28:33.875Z,51.323437
2023-07-21T05:29:33.867Z,51.323395
2023-07-21T05:30:33.835Z,51.323402
2023-07-21T05:31:33.895Z,51.323418
2023-07-21T05:32:33.962Z,51.323399
2023-07-21T05:33:33.773Z,51.323391
2023-07-21T05:34:33.751Z,51.323399
2023-07-21T05:35:33.735Z,51.323383
2023-07-21T05:36:33.744Z,51.323406
2023-07-21T05:37:33.717Z,51.323418
2023-07-21T05:38:33.675Z,51.323364
2023-07-21T05:39:33.648Z,51.323349
2023-07-21T05:40:33.625Z,51.323399
2023-07-21T05:41:33.646Z,51.323421
2023-07-21T05:42:35.007Z,51.323418
2023-07-21T05:43:33.569Z,51.323425
2023-07-21T05:44:33.568Z,51.323391
2023-07-21T05:45:33.518Z,51.323410
2023-07-21T05:46:33.572Z,51.323437
2023-07-21T05:47:33.503Z,51.323380
2023-07-21T05:48:33.449Z,51.323437
2023-07-21T05:49:33.432Z,51.323418
2023-07-21T05:50:33.440Z,51.323410
2023-07-21T05:51:33.409Z,51.323414
2023-07-21T05:52:33.393Z,51.323418
2023-07-21T05:53:33.366Z,51.323414
2023-07-21T05:54:33.313Z,51.323425
2023-07-21T05:55:33.328Z,51.323433
2023-07-21T05:56:33.279Z,51.323429
2023-07-21T05:57:33.256Z,51.323418
2023-07-21T05:58:33.241Z,51.323421
2023-07-21T05:59:33.249Z,51.323437
2023-07-21T06:00:33.260Z,51.323421
2023-07-21T06:01:33.166Z,51.323402
2023-07-21T06:02:33.176Z,51.323402
2023-07-21T06:03:33.227Z,51.323395
2023-07-21T06:04:33.162Z,51.323391
2023-07-21T06:05:33.089Z,51.323410
2023-07-21T06:06:33.069Z,51.323402
2023-07-21T06:07:33.038Z,51.323391
2023-07-21T06:08:33.018Z,51.323387
2023-07-21T06:09:33.030Z,51.323399
2023-07-21T06:10:33.974Z,51.323429
2023-07-21T06:11:32.952Z,51.323429
2023-07-21T06:12:32.937Z,51.323421
2023-07-21T06:13:32.961Z,51.323406
2023-07-21T06:14:32.922Z,51.323387
2023-07-21T06:15:32.876Z,51.323418
2023-07-21T06:16:32.864Z,51.323429
2023-07-21T06:17:32.832Z,51.323437
2023-07-21T06:18:34.379Z,51.323425
2023-07-21T06:19:32.790Z,51.323429
2023-07-21T06:20:32.764Z,51.323418
2023-07-21T06:21:32.746Z,51.323414
2023-07-21T06:22:32.732Z,51.323444
2023-07-21T06:23:32.730Z,51.323425
2023-07-21T06:24:32.706Z,51.323433
2023-07-21T06:25:32.660Z,51.323421
2023-07-21T06:26:32.636Z,51.323421
2023-07-21T06:27:32.660Z,51.323425
2023-07-21T06:28:32.623Z,51.323421
2023-07-21T06:29:32.572Z,51.323402
2023-07-21T06:30:32.572Z,51.323406
2023-07-21T06:31:32.524Z,51.323383
2023-07-21T06:32:32.569Z,51.323421
2023-07-21T06:33:32.504Z,51.323414
2023-07-21T06:34:32.464Z,51.323429
2023-07-21T06:35:32.448Z,51.323406
2023-07-21T06:36:32.423Z,51.323383
2023-07-21T06:37:32.429Z,51.323402
2023-07-21T06:38:32.386Z,51.323383
2023-07-21T06:39:32.361Z,51.323364
2023-07-21T06:40:32.344Z,51.323418
2023-07-21T06:41:32.478Z,51.323425
2023-07-21T06:42:32.345Z,51.323425
2023-07-21T06:43:32.276Z,51.323410
2023-07-21T06:44:32.261Z,51.323402
2023-07-21T06:45:32.239Z,51.323406
2023-07-21T06:46:32.271Z,51.323406
2023-07-21T06:47:34.341Z,51.323437
2023-07-21T06:48:33.174Z,51.323418
2023-07-21T06:49:32.174Z,51.323429
2023-07-21T06:50:32.139Z,51.323410
2023-07-21T06:51:32.136Z,51.323437
2023-07-21T06:52:32.085Z,51.323441
2023-07-21T06:53:32.076Z,51.323402
2023-07-21T06:54:32.063Z,51.323429
2023-07-21T06:55:32.053Z,51.323418
2023-07-21T06:56:32.036Z,51.323391
2023-07-21T06:57:31.987Z,51.323410
2023-07-21T06:58:31.963Z,51.323387
2023-07-21T06:59:31.941Z,51.323391
2023-07-21T07:00:31.949Z,51.323395
2023-07-21T07:01:31.906Z,51.323406
2023-07-21T07:02:31.908Z,51.323414
2023-07-21T07:03:31.888Z,51.323368
2023-07-21T07:04:31.863Z,51.323441
2023-07-21T07:05:31.893Z,51.323418
2023-07-21T07:06:31.792Z,51.323406
2023-07-21T07:07:31.774Z,51.323395
2023-07-21T07:08:31.748Z,51.323387
2023-07-21T07:09:31.762Z,51.323406
2023-07-21T07:10:31.734Z,51.323425
2023-07-21T07:11:31.689Z,51.323425
2023-07-21T07:12:31.665Z,51.323421
2023-07-21T07:13:31.644Z,51.323421
2023-07-21T07:14:31.653Z,51.323410
2023-07-21T07:15:31.621Z,51.323410
2023-07-21T07:16:31.605Z,51.323391
2023-07-21T07:17:31.600Z,51.323395
2023-07-21T07:18:31.574Z,51.323437
2023-07-21T07:19:31.565Z,51.323433
2023-07-21T07:20:31.507Z,51.323425
2023-07-21T07:21:31.475Z,51.323418
2023-07-21T07:22:31.462Z,51.323418
2023-07-21T07:23:31.474Z,51.323410
2023-07-21T07:24:31.449Z,51.323399
2023-07-21T07:25:31.444Z,51.323418
2023-07-21T07:26:31.372Z,51.323452
2023-07-21T07:27:31.359Z,51.323441
2023-07-21T07:28:31.365Z,51.323406
2023-07-21T07:29:31.308Z,51.323433
2023-07-21T07:30:31.368Z,51.323425
2023-07-21T07:31:31.281Z,51.323437
2023-07-21T07:32:31.312Z,51.323421
2023-07-21T07:33:31.251Z,51.323425
2023-07-21T07:34:31.236Z,51.323410
2023-07-21T07:35:31.186Z,51.323406
2023-07-21T07:36:31.151Z,51.323402
2023-07-21T07:37:31.171Z,51.323410
2023-07-21T07:38:31.118Z,51.323410
2023-07-21T07:39:31.097Z,51.323437
2023-07-21T07:40:31.070Z,51.323414
2023-07-21T07:41:31.058Z,51.323425
2023-07-21T07:42:31.105Z,51.323456
2023-07-21T07:43:31.000Z,51.323410
2023-07-21T07:44:30.985Z,51.323387
2023-07-21T07:45:31.247Z,51.323380
2023-07-21T07:46:31.015Z,51.323383
2023-07-21T07:47:30.967Z,51.323395
2023-07-21T07:48:31.892Z,51.323395
2023-07-21T07:49:30.861Z,51.323410
2023-07-21T07:50:30.852Z,51.323360
2023-07-21T07:51:30.853Z,51.323391
2023-07-21T07:52:30.801Z,51.323433
2023-07-21T07:53:30.829Z,51.323406
2023-07-21T07:54:30.758Z,51.323391
2023-07-21T07:55:30.751Z,51.323425
2023-07-21T07:56:30.752Z,51.323414
2023-07-21T07:57:30.706Z,51.323399
2023-07-21T07:58:30.855Z,51.323402
2023-07-21T07:59:30.944Z,51.323395
2023-07-21T08:00:30.663Z,51.323410
2023-07-21T08:01:30.653Z,51.323406
2023-07-21T08:02:30.605Z,51.323387
2023-07-21T08:03:30.701Z,51.323414
2023-07-21T08:04:30.616Z,51.323429
2023-07-21T08:05:30.552Z,51.323383
2023-07-21T08:06:31.048Z,51.323421
2023-07-21T08:07:31.484Z,51.323509
2023-07-21T08:08:30.472Z,51.323494
2023-07-21T08:09:30.455Z,51.323425
2023-07-21T08:10:30.460Z,51.323433
2023-07-21T08:11:30.401Z,51.323399
2023-07-21T08:12:30.398Z,51.323452
2023-07-21T08:13:30.364Z,51.323429
2023-07-21T08:14:30.375Z,51.323456
2023-07-21T08:15:30.358Z,51.323425
2023-07-21T08:16:30.329Z,51.323406
2023-07-21T08:17:30.398Z,51.323425
2023-07-21T08:18:30.269Z,51.323421
2023-07-21T08:19:30.276Z,51.323433
2023-07-21T08:20:30.229Z,51.323406
2023-07-21T08:21:30.315Z,51.323414
2023-07-21T08:22:30.197Z,51.323448
2023-07-21T08:23:30.691Z,51.323475
2023-07-21T08:24:31.222Z,51.323467
2023-07-21T08:25:30.137Z,51.323460
2023-07-21T08:26:30.116Z,51.323414
2023-07-21T08:27:30.096Z,51.323437
2023-07-21T08:28:30.106Z,51.323437
2023-07-21T08:29:30.085Z,51.323391
2023-07-21T08:30:32.474Z,51.323433
2023-07-21T08:31:31.051Z,51.323433
2023-07-21T08:32:30.049Z,51.323456
2023-07-21T08:33:30.012Z,51.323463
2023-07-21T08:34:29.965Z,51.323463
2023-07-21T08:35:29.945Z,51.323475
2023-07-21T08:36:36.882Z,51.323456
2023-07-21T08:37:31.909Z,51.323433
2023-07-21T08:38:29.956Z,51.323433
2023-07-21T08:39:29.878Z,51.323456
2023-07-21T08:40:29.893Z,51.323475
2023-07-21T08:41:29.839Z,51.323479
2023-07-21T08:42:29.859Z,51.323448
2023-07-21T08:43:29.834Z,51.323429
2023-07-21T08:44:29.788Z,51.323425
2023-07-21T08:45:29.770Z,51.323441
2023-07-21T08:46:29.934Z,51.323441
2023-07-21T08:47:30.673Z,51.323471
2023-07-21T08:48:29.726Z,51.323475
2023-07-21T08:49:29.694Z,51.323460
2023-07-21T08:50:29.692Z,51.323490
2023-07-21T08:51:29.661Z,51.323483
2023-07-21T08:52:29.683Z,51.323452
2023-07-21T08:53:29.651Z,51.323441
2023-07-21T08:54:29.610Z,51.323441
2023-07-21T08:55:29.674Z,51.323441
2023-07-21T08:56:29.598Z,51.323460
2023-07-21T08:57:29.592Z,51.323441
2023-07-21T08:58:29.545Z,51.323452
2023-07-21T08:59:29.523Z,51.323456
2023-07-21T09:00:29.504Z,51.323441
2023-07-21T09:01:29.568Z,51.323441
2023-07-21T09:02:29.470Z,51.323437
2023-07-21T09:03:29.550Z,51.323433
2023-07-21T09:04:29.420Z,51.323414
2023-07-21T09:05:29.580Z,51.323433
2023-07-21T09:06:29.416Z,51.323429
2023-07-21T09:07:29.363Z,51.323441
2023-07-21T09:08:29.377Z,51.323433
2023-07-21T09:09:29.331Z,51.323421
2023-07-21T09:10:29.340Z,51.323437
2023-07-21T09:11:29.298Z,51.323452
2023-07-21T09:12:29.281Z,51.323448
2023-07-21T09:13:29.265Z,51.323425
2023-07-21T09:14:29.236Z,51.323406
2023-07-21T09:15:29.294Z,51.323387
2023-07-21T09:16:29.453Z,51.323410
2023-07-21T09:17:29.211Z,51.323421
2023-07-21T09:18:29.180Z,51.323433
2023-07-21T09:19:29.171Z,51.323433
2023-07-21T09:20:29.171Z,51.323406
2023-07-21T09:21:29.105Z,51.323414
2023-07-21T09:22:29.110Z,51.323383
2023-07-21T09:23:29.064Z,51.323410
2023-07-21T09:24:29.168Z,51.323383
2023-07-21T09:25:29.031Z,51.323414
2023-07-21T09:26:29.347Z,51.323399
2023-07-21T09:27:28.996Z,51.323387
2023-07-21T09:28:28.973Z,51.323410
2023-07-21T09:29:29.048Z,51.323402
2023-07-21T09:30:28.933Z,51.323414
2023-07-21T09:31:28.959Z,51.323421
2023-07-21T09:32:28.943Z,51.323429
2023-07-21T09:33:28.909Z,51.323425
2023-07-21T09:34:28.892Z,51.323410
2023-07-21T09:35:28.838Z,51.323414
2023-07-21T09:36:29.109Z,51.323391
2023-07-21T09:37:28.804Z,51.323402
2023-07-21T09:38:28.820Z,51.323402
2023-07-21T09:39:28.776Z,51.323387
2023-07-21T09:40:28.766Z,51.323410
2023-07-21T09:41:28.726Z,51.323418
2023-07-21T09:42:28.756Z,51.323402
2023-07-21T09:43:28.717Z,51.323391
2023-07-21T09:44:28.673Z,51.323338
2023-07-21T09:45:28.647Z,51.323399
2023-07-21T09:46:28.660Z,51.323380
2023-07-21T09:47:28.799Z,51.323368
2023-07-21T09:48:28.590Z,51.323372
2023-07-21T09:49:28.569Z,51.323372
2023-07-21T09:50:28.554Z,51.323368
2023-07-21T09:51:28.537Z,51.323391
2023-07-21T09:52:28.562Z,51.323383
2023-07-21T09:53:28.517Z,51.323391
2023-07-21T09:54:28.480Z,51.323387
2023-07-21T09:55:28.463Z,51.323368
2023-07-21T09:56:28.722Z,51.323387
2023-07-21T09:57:28.451Z,51.323391
2023-07-21T09:58:28.401Z,51.323406
2023-07-21T09:59:28.445Z,51.323391
2023-07-21T10:00:28.403Z,51.323383
2023-07-21T10:01:28.852Z,51.323380
2023-07-21T10:02:28.355Z,51.323391
2023-07-21T10:03:28.348Z,51.323380
2023-07-21T10:04:28.282Z,51.323387
2023-07-21T10:05:28.275Z,51.323387
2023-07-21T10:06:28.278Z,51.323399
2023-07-21T10:07:28.223Z,51.323383
2023-07-21T10:08:28.204Z,51.323380
2023-07-21T10:09:28.191Z,51.323391
2023-07-21T10:10:28.200Z,51.323387
2023-07-21T10:11:28.445Z,51.323406
2023-07-21T10:12:28.131Z,51.323372
2023-07-21T10:13:28.118Z,51.323372
2023-07-21T10:14:28.104Z,51.323368
2023-07-21T10:15:28.173Z,51.323406
2023-07-21T10:16:28.129Z,51.323387
2023-07-21T10:17:28.043Z,51.323414
2023-07-21T10:18:28.016Z,51.323406
2023-07-21T10:19:28.024Z,51.323399
2023-07-21T10:20:29.011Z,51.323391
2023-07-21T10:21:28.122Z,51.323372
2023-07-21T10:22:27.940Z,51.323391
2023-07-21T10:23:27.930Z,51.323387
2023-07-21T10:24:28.081Z,51.323406
2023-07-21T10:25:27.886Z,51.323391
2023-07-21T10:26:27.877Z,51.323387
2023-07-21T10:27:27.862Z,51.323391
2023-07-21T10:28:27.834Z,51.323349
2023-07-21T10:29:27.852Z,51.323364
2023-07-21T10:30:27.795Z,51.323380
2023-07-21T10:31:28.632Z,51.323376
2023-07-21T10:32:27.789Z,51.323364
2023-07-21T10:33:27.800Z,51.323349
2023-07-21T10:34:27.751Z,51.323372
2023-07-21T10:35:27.704Z,51.323380
2023-07-21T10:36:27.682Z,51.323372
2023-07-21T10:37:27.665Z,51.323364
2023-07-21T10:38:27.691Z,51.323357
2023-07-21T10:39:27.628Z,51.323360
2023-07-21T10:40:27.600Z,51.323360
2023-07-21T10:41:27.767Z,51.323357
2023-07-21T10:42:27.611Z,51.323353
2023-07-21T10:43:27.587Z,51.323376
2023-07-21T10:44:27.537Z,51.323372
2023-07-21T10:45:27.520Z,51.323360
2023-07-21T10:46:30.243Z,51.323353
2023-07-21T10:47:27.593Z,51.323380
2023-07-21T10:48:27.507Z,51.323376
2023-07-21T10:49:27.478Z,51.323360
2023-07-21T10:50:27.434Z,51.323349
2023-07-21T10:51:27.701Z,51.323341
2023-07-21T10:52:27.422Z,51.323368
2023-07-21T10:53:27.373Z,51.323357
2023-07-21T10:54:27.356Z,51.323368
2023-07-21T10:55:27.338Z,51.323357
2023-07-21T10:56:27.325Z,51.323360
2023-07-21T10:57:27.332Z,51.323360
2023-07-21T10:58:27.305Z,51.323338
2023-07-21T10:59:27.266Z,51.323345
2023-07-21T11:00:27.251Z,51.323349
2023-07-21T11:01:27.479Z,51.323311
2023-07-21T11:02:27.280Z,51.323349
2023-07-21T11:03:27.276Z,51.323410
2023-07-21T11:04:27.173Z,51.323399
2023-07-21T11:05:27.185Z,51.323364
2023-07-21T11:06:27.182Z,51.323372
2023-07-21T11:07:27.115Z,51.323357
2023-07-21T11:08:27.115Z,51.323395
2023-07-21T11:09:27.091Z,51.323395
2023-07-21T11:10:27.072Z,51.323353
2023-07-21T11:11:27.386Z,51.323372
2023-07-21T11:12:27.021Z,51.323357
2023-07-21T11:13:27.006Z,51.323360
2023-07-21T11:14:26.992Z,51.323383
2023-07-21T11:15:26.998Z,51.323414
2023-07-21T11:16:26.999Z,51.323387
2023-07-21T11:17:26.979Z,51.323387
2023-07-21T11:18:26.912Z,51.323391
2023-07-21T11:19:26.908Z,51.323399
2023-07-21T11:20:26.907Z,51.323399
2023-07-21T11:21:27.243Z,51.323372
2023-07-21T11:22:26.858Z,51.323372
2023-07-21T11:23:26.832Z,51.323421
2023-07-21T11:24:26.957Z,51.323418